UKLL/LWO METAR and TAF weather

Enter ICAO airport designator
Station Type Date Time Source
UKLL METAR 2021/07/29 09:00 UTC NOAA

UKLL 290900Z 30004MPS 9999 SCT014CB BKN014 21/18 Q1013 R31/CLRD// NOSIG


Station Type Date Time Source
UKLL Decoded METAR 2021/07/29 09:00 UTC NOAA

L'Viv, Ukraine (UKLL) 49-49N 023-57E 323M
Jul 29, 2021 - 05:00 AM EDT / 2021.07.29 0900 UTC
Wind: from the WNW (300 degrees) at 9 MPH (8 KT):0
Visibility: greater than 7 mile(s):0
Sky conditions: mostly cloudy
Weather: Cumulonimbus clouds observed
Temperature: 69 F (21 C)
Dew Point: 64 F (18 C)
Relative Humidity: 82%
Pressure (altimeter): 29.91 in. Hg (1013 hPa)
ob: UKLL 290900Z 30004MPS 9999 SCT014CB BKN014 21/18 Q1013 R31/CLRD// NOSIG
cycle: 9

Station Type Date Time Source
UKLL TAF 2021/07/29 06:12 UTC NOAA

TAF UKLL 290502Z 2906/3006 27005G11MPS 9999 BKN007 SCT025CB TX25/2912Z TN14/3003Z
TEMPO 2906/2918 29007G14MPS 3000 -TSRAGR SCT005 BKN020CB
BECMG 2918/2919 VRB01MPS

Example: see airport list